createdAt,value
2024-01-26T00:00:56.139Z,6.10
2024-01-26T00:01:59.098Z,6.00
2024-01-26T00:03:01.587Z,6.00
2024-01-26T00:04:05.050Z,6.00
2024-01-26T00:05:07.987Z,6.00
2024-01-26T00:06:10.350Z,5.90
2024-01-26T00:07:13.074Z,6.00
2024-01-26T00:08:18.584Z,5.90
2024-01-26T00:09:23.878Z,5.90
2024-01-26T00:10:26.398Z,5.90
2024-01-26T00:11:28.643Z,5.90
2024-01-26T00:12:32.100Z,5.90
2024-01-26T00:13:34.475Z,5.90
2024-01-26T00:14:36.707Z,5.90
2024-01-26T00:15:39.135Z,5.90
2024-01-26T00:16:41.551Z,5.90
2024-01-26T00:17:44.254Z,5.90
2024-01-26T00:18:46.868Z,5.90
2024-01-26T00:19:49.139Z,5.90
2024-01-26T00:20:51.454Z,5.90
2024-01-26T00:21:53.886Z,5.90
2024-01-26T00:22:56.160Z,5.80
2024-01-26T00:23:58.959Z,5.80
2024-01-26T00:25:02.161Z,5.80
2024-01-26T00:26:04.814Z,5.80
2024-01-26T00:27:07.711Z,5.70
2024-01-26T00:28:09.948Z,5.70
2024-01-26T00:29:12.409Z,5.70
2024-01-26T00:30:44.758Z,5.70
2024-01-26T00:31:47.152Z,5.70
2024-01-26T00:33:10.026Z,5.70
2024-01-26T00:34:12.381Z,5.70
2024-01-26T00:35:15.738Z,5.70
2024-01-26T00:36:18.087Z,5.60
2024-01-26T00:37:20.433Z,5.60
2024-01-26T00:38:23.373Z,5.60
2024-01-26T00:39:25.676Z,5.50
2024-01-26T00:40:28.705Z,5.50
2024-01-26T00:41:31.112Z,5.50
2024-01-26T00:42:33.415Z,5.50
2024-01-26T00:43:36.050Z,5.50
2024-01-26T00:44:38.553Z,5.60
2024-01-26T00:45:40.945Z,5.50
2024-01-26T00:46:43.276Z,5.50
2024-01-26T00:47:46.070Z,5.50
2024-01-26T00:48:48.549Z,5.50
2024-01-26T00:49:53.135Z,5.50
2024-01-26T00:50:56.061Z,5.50
2024-01-26T00:51:58.617Z,5.50
2024-01-26T00:53:00.941Z,5.50
2024-01-26T00:54:04.026Z,5.50
2024-01-26T00:55:06.540Z,5.50
2024-01-26T00:56:09.118Z,5.50
2024-01-26T00:57:11.389Z,5.50
2024-01-26T00:58:13.677Z,5.50
2024-01-26T00:59:16.014Z,5.50
2024-01-26T01:00:18.470Z,5.50
2024-01-26T01:01:21.303Z,5.50
2024-01-26T01:02:23.717Z,5.50
2024-01-26T01:03:26.038Z,5.50
2024-01-26T01:04:28.572Z,5.50
2024-01-26T01:05:31.186Z,5.50
2024-01-26T01:06:33.744Z,5.40
2024-01-26T01:07:36.242Z,5.30
2024-01-26T01:08:38.791Z,5.30
2024-01-26T01:09:43.099Z,5.30
2024-01-26T01:10:45.400Z,5.30
2024-01-26T01:11:47.873Z,5.30
2024-01-26T01:12:50.789Z,5.30
2024-01-26T01:13:53.166Z,5.30
2024-01-26T01:14:55.531Z,5.30
2024-01-26T01:15:57.821Z,5.30
2024-01-26T01:17:00.197Z,5.30
2024-01-26T01:18:02.628Z,5.30
2024-01-26T01:19:05.230Z,5.30
2024-01-26T01:20:11.225Z,5.30
2024-01-26T01:21:14.847Z,5.30
2024-01-26T01:22:17.207Z,5.30
2024-01-26T01:23:19.600Z,5.30
2024-01-26T01:24:21.870Z,5.30
2024-01-26T01:25:24.133Z,5.30
2024-01-26T01:26:28.782Z,5.30
2024-01-26T01:27:33.283Z,5.30
2024-01-26T01:28:35.637Z,5.20
2024-01-26T01:29:38.224Z,5.30
2024-01-26T01:30:40.591Z,5.30
2024-01-26T01:31:42.860Z,5.30
2024-01-26T01:32:45.258Z,5.30
2024-01-26T01:33:47.751Z,5.30
2024-01-26T01:34:50.182Z,5.30
2024-01-26T01:35:54.305Z,5.30
2024-01-26T01:36:56.734Z,5.30
2024-01-26T01:37:59.050Z,5.30
2024-01-26T01:39:01.468Z,5.30
2024-01-26T01:40:04.169Z,5.30
2024-01-26T01:41:06.426Z,5.30
2024-01-26T01:42:15.448Z,5.30
2024-01-26T01:43:19.133Z,5.30
2024-01-26T01:44:21.694Z,5.30
2024-01-26T01:45:24.045Z,5.30
2024-01-26T01:46:26.344Z,5.30
2024-01-26T01:47:29.294Z,5.30
2024-01-26T01:48:31.981Z,5.30
2024-01-26T01:49:37.948Z,5.30
2024-01-26T01:50:40.420Z,5.30
2024-01-26T01:51:47.274Z,5.30
2024-01-26T01:52:52.325Z,5.30
2024-01-26T01:53:55.595Z,5.30
2024-01-26T01:55:03.715Z,5.30
2024-01-26T01:56:07.881Z,5.30
2024-01-26T01:57:15.553Z,5.30
2024-01-26T01:58:17.911Z,5.30
2024-01-26T01:59:20.304Z,5.30
2024-01-26T02:00:22.725Z,5.20
2024-01-26T02:01:25.177Z,5.20
2024-01-26T02:02:27.683Z,5.20
2024-01-26T02:03:33.189Z,5.10
2024-01-26T02:04:35.821Z,5.10
2024-01-26T02:05:38.276Z,5.10
2024-01-26T02:06:40.710Z,5.10
2024-01-26T02:07:43.477Z,5.10
2024-01-26T02:08:45.784Z,5.10
2024-01-26T02:09:48.140Z,5.10
2024-01-26T02:10:50.538Z,5.10
2024-01-26T02:11:53.515Z,5.00
2024-01-26T02:12:55.952Z,5.00
2024-01-26T02:13:58.228Z,5.00
2024-01-26T02:15:00.741Z,5.00
2024-01-26T02:16:03.083Z,5.00
2024-01-26T02:17:05.558Z,5.00
2024-01-26T02:18:08.015Z,5.00
2024-01-26T02:19:13.342Z,5.00
2024-01-26T02:20:15.837Z,5.00
2024-01-26T02:21:18.179Z,5.00
2024-01-26T02:22:20.520Z,5.00
2024-01-26T02:23:24.211Z,5.00
2024-01-26T02:24:26.494Z,5.10
2024-01-26T02:25:28.829Z,5.10
2024-01-26T02:26:31.153Z,5.10
2024-01-26T02:27:34.870Z,5.10
2024-01-26T02:28:37.843Z,5.10
2024-01-26T02:29:40.340Z,5.10
2024-01-26T02:30:42.608Z,5.10
2024-01-26T02:31:44.909Z,5.10
2024-01-26T02:32:47.340Z,5.10
2024-01-26T02:33:49.708Z,5.10
2024-01-26T02:34:52.168Z,5.10
2024-01-26T02:35:54.635Z,5.10
2024-01-26T02:36:56.888Z,5.10
2024-01-26T02:37:59.296Z,5.10
2024-01-26T02:39:02.260Z,5.10
2024-01-26T02:40:04.962Z,5.00
2024-01-26T02:41:07.239Z,5.00
2024-01-26T02:42:09.720Z,5.00
2024-01-26T02:43:12.429Z,5.00
2024-01-26T02:44:14.718Z,4.90
2024-01-26T02:45:17.037Z,5.00
2024-01-26T02:46:19.906Z,4.90
2024-01-26T02:47:22.205Z,4.90
2024-01-26T02:48:25.234Z,4.90
2024-01-26T02:49:30.412Z,4.90
2024-01-26T02:50:34.965Z,4.90
2024-01-26T02:51:37.392Z,4.90
2024-01-26T02:52:39.674Z,4.90
2024-01-26T02:53:42.279Z,4.90
2024-01-26T02:54:44.681Z,4.80
2024-01-26T02:55:46.953Z,4.80
2024-01-26T02:56:49.285Z,4.80
2024-01-26T02:57:51.577Z,4.80
2024-01-26T02:58:53.902Z,4.80
2024-01-26T02:59:56.213Z,4.80
2024-01-26T03:00:58.592Z,4.70
2024-01-26T03:02:00.933Z,4.80
2024-01-26T03:03:03.327Z,4.80
2024-01-26T03:04:05.878Z,4.80
2024-01-26T03:05:08.611Z,4.80
2024-01-26T03:06:13.524Z,4.80
2024-01-26T03:07:15.865Z,4.80
2024-01-26T03:08:18.200Z,4.70
2024-01-26T03:09:20.617Z,4.70
2024-01-26T03:10:22.952Z,4.60
2024-01-26T03:11:37.808Z,4.70
2024-01-26T03:12:40.397Z,4.60
2024-01-26T03:13:42.836Z,4.60
2024-01-26T03:14:45.186Z,4.60
2024-01-26T03:15:51.343Z,4.60
2024-01-26T03:16:53.585Z,4.60
2024-01-26T03:17:55.957Z,4.60
2024-01-26T03:18:58.361Z,4.60
2024-01-26T03:20:00.940Z,4.60
2024-01-26T03:21:03.396Z,4.60
2024-01-26T03:22:05.803Z,4.60
2024-01-26T03:23:08.273Z,4.60
2024-01-26T03:24:10.823Z,4.60
2024-01-26T03:25:13.288Z,4.60
2024-01-26T03:26:15.573Z,4.60
2024-01-26T03:27:17.978Z,4.60
2024-01-26T03:28:20.394Z,4.60
2024-01-26T03:29:22.921Z,4.50
2024-01-26T03:30:25.274Z,4.40
2024-01-26T03:31:27.620Z,4.40
2024-01-26T03:32:30.646Z,4.40
2024-01-26T03:33:33.118Z,4.40
2024-01-26T03:34:35.735Z,4.30
2024-01-26T03:35:38.161Z,4.30
2024-01-26T03:36:40.393Z,4.30
2024-01-26T03:37:42.727Z,4.30
2024-01-26T03:38:45.505Z,4.30
2024-01-26T03:39:47.938Z,4.30
2024-01-26T03:40:50.237Z,4.20
2024-01-26T03:41:52.539Z,4.20
2024-01-26T03:42:55.263Z,4.20
2024-01-26T03:43:57.592Z,4.20
2024-01-26T03:44:59.911Z,4.20
2024-01-26T03:46:04.710Z,4.20
2024-01-26T03:47:07.466Z,4.20
2024-01-26T03:48:09.850Z,4.30
2024-01-26T03:49:12.375Z,4.30
2024-01-26T03:50:14.769Z,4.30
2024-01-26T03:51:17.170Z,4.30
2024-01-26T03:52:19.586Z,4.30
2024-01-26T03:53:21.941Z,4.40
2024-01-26T03:54:24.310Z,4.40
2024-01-26T03:55:26.782Z,4.40
2024-01-26T03:56:32.004Z,4.40
2024-01-26T03:57:35.129Z,4.40
2024-01-26T03:58:37.465Z,4.50
2024-01-26T03:59:39.925Z,4.50
2024-01-26T04:00:42.310Z,4.50
2024-01-26T04:01:47.626Z,4.60
2024-01-26T04:02:50.049Z,4.60
2024-01-26T04:03:52.453Z,4.60
2024-01-26T04:04:54.889Z,4.70
2024-01-26T04:05:57.260Z,4.70
2024-01-26T04:06:59.553Z,4.70
2024-01-26T04:08:01.928Z,4.70
2024-01-26T04:09:04.356Z,4.70
2024-01-26T04:10:07.795Z,4.70
2024-01-26T04:11:10.260Z,4.70
2024-01-26T04:12:12.646Z,4.70
2024-01-26T04:13:15.026Z,4.70
2024-01-26T04:14:20.796Z,4.70
2024-01-26T04:15:24.307Z,4.70
2024-01-26T04:16:26.907Z,4.70
2024-01-26T04:17:29.412Z,4.70
2024-01-26T04:18:31.867Z,4.70
2024-01-26T04:19:34.234Z,4.70
2024-01-26T04:20:36.581Z,4.70
2024-01-26T04:21:38.837Z,4.70
2024-01-26T04:22:41.318Z,4.70
2024-01-26T04:23:43.658Z,4.70
2024-01-26T04:24:46.030Z,4.70
2024-01-26T04:25:48.447Z,4.70
2024-01-26T04:26:50.760Z,4.70
2024-01-26T04:27:53.289Z,4.70
2024-01-26T04:28:55.681Z,4.60
2024-01-26T04:29:58.189Z,4.60
2024-01-26T04:31:00.479Z,4.50
2024-01-26T04:32:02.892Z,4.50
2024-01-26T04:33:05.564Z,4.50
2024-01-26T04:34:08.082Z,4.40
2024-01-26T04:35:12.617Z,4.30
2024-01-26T04:36:15.240Z,4.20
2024-01-26T04:37:17.468Z,4.20
2024-01-26T04:38:19.689Z,4.10
2024-01-26T04:39:22.061Z,4.10
2024-01-26T04:40:24.447Z,4.00
2024-01-26T04:41:26.924Z,4.00
2024-01-26T04:42:29.226Z,4.00
2024-01-26T04:43:31.524Z,4.00
2024-01-26T04:44:33.968Z,3.90
2024-01-26T04:45:36.764Z,4.00
2024-01-26T04:46:39.155Z,4.00
2024-01-26T04:47:42.445Z,4.00
2024-01-26T04:48:45.106Z,4.00
2024-01-26T04:49:47.567Z,4.00
2024-01-26T04:50:49.999Z,4.00
2024-01-26T04:51:52.284Z,4.00
2024-01-26T04:52:55.309Z,3.90
2024-01-26T04:53:57.901Z,3.90
2024-01-26T04:55:00.317Z,3.90
2024-01-26T04:56:02.768Z,3.80
2024-01-26T04:57:05.716Z,3.80
2024-01-26T04:58:08.087Z,3.80
2024-01-26T04:59:10.348Z,3.80
2024-01-26T05:00:13.220Z,3.80
2024-01-26T05:01:16.094Z,3.80
2024-01-26T05:02:18.410Z,3.70
2024-01-26T05:03:20.803Z,3.70
2024-01-26T05:04:23.188Z,3.70
2024-01-26T05:05:25.661Z,3.70
2024-01-26T05:06:28.106Z,3.70
2024-01-26T05:07:30.446Z,3.70
2024-01-26T05:08:32.842Z,3.70
2024-01-26T05:09:35.392Z,3.70
2024-01-26T05:10:37.845Z,3.80
2024-01-26T05:11:40.284Z,3.80
2024-01-26T05:12:42.825Z,3.70
2024-01-26T05:13:45.217Z,3.70
2024-01-26T05:14:47.618Z,3.70
2024-01-26T05:15:49.950Z,3.70
2024-01-26T05:16:52.351Z,3.70
2024-01-26T05:17:55.408Z,3.80
2024-01-26T05:18:57.985Z,3.80
2024-01-26T05:20:00.467Z,3.70
2024-01-26T05:21:02.861Z,3.70
2024-01-26T05:22:05.440Z,3.70
2024-01-26T05:23:07.828Z,3.70
2024-01-26T05:24:10.369Z,3.70
2024-01-26T05:25:12.757Z,3.70
2024-01-26T05:26:15.108Z,3.70
2024-01-26T05:27:17.983Z,3.70
2024-01-26T05:28:20.350Z,3.70
2024-01-26T05:29:25.340Z,3.70
2024-01-26T05:30:29.095Z,3.70
2024-01-26T05:31:31.390Z,3.70
2024-01-26T05:32:33.928Z,3.70
2024-01-26T05:33:36.786Z,3.70
2024-01-26T05:34:39.742Z,3.70
2024-01-26T05:35:42.146Z,3.80
2024-01-26T05:36:45.459Z,3.80
2024-01-26T05:37:47.744Z,3.70
2024-01-26T05:38:50.079Z,3.80
2024-01-26T05:39:52.369Z,3.80
2024-01-26T05:40:54.618Z,3.80
2024-01-26T05:41:57.039Z,3.80
2024-01-26T05:42:59.440Z,3.80
2024-01-26T05:44:01.931Z,3.80
2024-01-26T05:45:04.720Z,3.80
2024-01-26T05:46:07.540Z,3.80
2024-01-26T05:47:09.815Z,3.80
2024-01-26T05:48:12.365Z,3.80
2024-01-26T05:49:15.010Z,3.80
2024-01-26T05:50:17.620Z,3.80
2024-01-26T05:51:20.157Z,3.80
2024-01-26T05:52:22.602Z,3.80
2024-01-26T05:53:24.832Z,3.80
2024-01-26T05:54:27.096Z,3.80
2024-01-26T05:55:29.341Z,3.80
2024-01-26T05:56:31.788Z,3.90
2024-01-26T05:57:34.148Z,3.90
2024-01-26T05:58:36.493Z,3.90
2024-01-26T05:59:39.487Z,3.80
2024-01-26T06:00:42.343Z,3.80
2024-01-26T06:01:44.579Z,3.80
2024-01-26T06:02:47.150Z,3.80
2024-01-26T06:03:49.664Z,3.80
2024-01-26T06:04:52.064Z,3.80
2024-01-26T06:05:54.768Z,3.80
2024-01-26T06:06:57.342Z,3.80
2024-01-26T06:08:00.740Z,3.80
2024-01-26T06:09:03.365Z,3.80
2024-01-26T06:10:06.353Z,3.80
2024-01-26T06:11:09.498Z,3.80
2024-01-26T06:12:12.037Z,3.80
2024-01-26T06:13:14.371Z,3.70
2024-01-26T06:14:16.801Z,3.80
2024-01-26T06:15:19.471Z,3.70
2024-01-26T06:16:21.807Z,3.70
2024-01-26T06:17:24.155Z,3.70
2024-01-26T06:18:26.624Z,3.70
2024-01-26T06:19:29.260Z,3.80
2024-01-26T06:20:32.866Z,3.80
2024-01-26T06:21:35.454Z,3.80
2024-01-26T06:22:38.682Z,3.80
2024-01-26T06:23:41.372Z,3.80
2024-01-26T06:24:43.799Z,3.80
2024-01-26T06:25:46.064Z,3.80
2024-01-26T06:26:48.478Z,3.90
2024-01-26T06:27:50.746Z,3.90
2024-01-26T06:28:53.487Z,3.90
2024-01-26T06:29:56.022Z,3.90
2024-01-26T06:30:58.330Z,3.90
2024-01-26T06:32:01.271Z,3.90
2024-01-26T06:33:04.204Z,3.90
2024-01-26T06:34:06.788Z,3.90
2024-01-26T06:35:09.448Z,3.90
2024-01-26T06:36:14.951Z,3.90
2024-01-26T06:37:17.344Z,3.90
2024-01-26T06:38:19.639Z,3.90
2024-01-26T06:39:22.213Z,4.00
2024-01-26T06:40:24.529Z,4.00
2024-01-26T06:41:26.781Z,4.10
2024-01-26T06:42:31.029Z,4.10
2024-01-26T06:43:33.384Z,4.10
2024-01-26T06:44:36.198Z,4.10
2024-01-26T06:45:38.587Z,4.10
2024-01-26T06:46:40.964Z,4.10
2024-01-26T06:47:43.484Z,4.10
2024-01-26T06:48:45.903Z,4.10
2024-01-26T06:49:48.470Z,4.10
2024-01-26T06:50:50.866Z,4.20
2024-01-26T06:51:53.160Z,4.20
2024-01-26T06:52:55.509Z,4.20
2024-01-26T06:53:58.219Z,4.20
2024-01-26T06:55:01.139Z,4.20
2024-01-26T06:56:03.599Z,4.20
2024-01-26T06:57:06.504Z,4.20
2024-01-26T06:58:08.822Z,4.30
2024-01-26T06:59:11.314Z,4.30
2024-01-26T07:00:14.463Z,4.30
2024-01-26T07:01:17.066Z,4.30
2024-01-26T07:02:19.381Z,4.30
2024-01-26T07:03:21.959Z,4.30
2024-01-26T07:04:24.395Z,4.30
2024-01-26T07:05:26.947Z,4.40
2024-01-26T07:06:29.446Z,4.40
2024-01-26T07:07:31.739Z,4.40
2024-01-26T07:08:38.035Z,4.40
2024-01-26T07:09:42.464Z,4.40
2024-01-26T07:10:44.834Z,4.50
2024-01-26T07:11:47.129Z,4.50
2024-01-26T07:12:49.783Z,4.50
2024-01-26T07:13:52.084Z,4.60
2024-01-26T07:14:54.402Z,4.60
2024-01-26T07:15:56.682Z,4.60
2024-01-26T07:16:58.916Z,4.60
2024-01-26T07:18:01.391Z,4.60
2024-01-26T07:19:03.940Z,4.70
2024-01-26T07:20:07.281Z,4.70
2024-01-26T07:21:09.978Z,4.60
2024-01-26T07:22:12.306Z,4.70
2024-01-26T07:23:14.668Z,4.70
2024-01-26T07:24:17.071Z,4.70
2024-01-26T07:25:21.334Z,4.70
2024-01-26T07:26:23.874Z,4.70
2024-01-26T07:27:26.135Z,4.80
2024-01-26T07:28:28.833Z,4.80
2024-01-26T07:29:31.211Z,4.80
2024-01-26T07:30:33.519Z,4.90
2024-01-26T07:31:35.914Z,4.90
2024-01-26T07:32:38.570Z,4.90
2024-01-26T07:33:41.200Z,5.00
2024-01-26T07:34:43.733Z,5.00
2024-01-26T07:35:46.174Z,5.00
2024-01-26T07:36:48.424Z,5.00
2024-01-26T07:37:51.086Z,5.00
2024-01-26T07:38:53.562Z,5.10
2024-01-26T07:39:55.872Z,5.10
2024-01-26T07:40:59.178Z,5.10
2024-01-26T07:42:01.614Z,5.10
2024-01-26T07:43:04.104Z,5.10
2024-01-26T07:44:06.773Z,5.20
2024-01-26T07:45:09.595Z,5.20
2024-01-26T07:46:12.321Z,5.30
2024-01-26T07:47:14.632Z,5.30
2024-01-26T07:48:17.317Z,5.30
2024-01-26T07:49:20.507Z,5.40
2024-01-26T07:50:23.014Z,5.40
2024-01-26T07:51:25.399Z,5.50
2024-01-26T07:52:28.563Z,5.60
2024-01-26T07:53:30.847Z,5.60
2024-01-26T07:54:33.148Z,5.70
2024-01-26T07:55:35.717Z,5.70
2024-01-26T07:56:38.143Z,5.80
2024-01-26T07:57:40.504Z,5.80
2024-01-26T07:58:43.074Z,5.90
2024-01-26T07:59:45.430Z,5.90
2024-01-26T08:00:48.545Z,6.00
2024-01-26T08:01:51.366Z,6.00
2024-01-26T08:02:54.543Z,6.10
2024-01-26T08:03:57.126Z,6.10
2024-01-26T08:04:59.569Z,6.10
2024-01-26T08:06:01.953Z,6.20
2024-01-26T08:07:04.938Z,6.30
2024-01-26T08:08:08.869Z,6.30
2024-01-26T08:09:12.302Z,6.30
2024-01-26T08:10:17.997Z,6.40
2024-01-26T08:11:22.245Z,6.50
2024-01-26T08:12:34.575Z,6.50
2024-01-26T08:13:46.666Z,6.60
2024-01-26T08:14:49.291Z,6.70
2024-01-26T08:15:51.787Z,6.80
2024-01-26T08:16:54.175Z,6.90
2024-01-26T08:17:56.782Z,7.20
2024-01-26T08:18:59.466Z,7.50
2024-01-26T08:20:04.894Z,7.90
2024-01-26T08:21:08.685Z,8.30
2024-01-26T08:22:11.059Z,8.70
2024-01-26T08:23:13.517Z,9.00
2024-01-26T08:24:16.654Z,9.30
2024-01-26T08:25:19.171Z,9.60
2024-01-26T08:26:21.909Z,9.90
2024-01-26T08:27:24.435Z,10.20
2024-01-26T08:28:27.081Z,10.40
2024-01-26T08:29:29.463Z,10.60
2024-01-26T08:30:31.746Z,10.90
2024-01-26T08:31:34.314Z,11.10
2024-01-26T08:32:36.715Z,11.30
2024-01-26T08:33:39.249Z,11.50
2024-01-26T08:34:42.019Z,11.60
2024-01-26T08:35:44.645Z,11.80
2024-01-26T08:36:47.113Z,11.80
2024-01-26T08:37:50.004Z,11.80
2024-01-26T08:38:54.762Z,11.90
2024-01-26T08:39:57.621Z,11.90
2024-01-26T08:41:00.075Z,11.90
2024-01-26T08:42:02.540Z,11.90
2024-01-26T08:43:04.993Z,12.00
2024-01-26T08:44:07.511Z,12.20
2024-01-26T08:45:11.259Z,12.20
2024-01-26T08:46:13.746Z,12.40
2024-01-26T08:47:15.976Z,12.50
2024-01-26T08:48:18.500Z,12.60
2024-01-26T08:49:21.031Z,12.80
2024-01-26T08:50:23.422Z,12.90
2024-01-26T08:51:25.757Z,13.00
2024-01-26T08:52:29.199Z,13.20
2024-01-26T08:53:31.565Z,13.50
2024-01-26T08:54:34.299Z,13.60
2024-01-26T08:55:36.631Z,13.80
2024-01-26T08:56:45.153Z,13.90
2024-01-26T08:57:49.845Z,14.00
2024-01-26T08:58:52.625Z,14.10
2024-01-26T08:59:55.021Z,14.20
2024-01-26T09:00:57.361Z,14.40
2024-01-26T09:01:59.713Z,14.50
2024-01-26T09:03:02.501Z,14.50
2024-01-26T09:04:09.829Z,14.50
2024-01-26T09:05:13.366Z,14.60
2024-01-26T09:06:16.173Z,14.70
2024-01-26T09:07:20.789Z,14.80
2024-01-26T09:08:23.265Z,14.80
2024-01-26T09:09:25.802Z,14.70
2024-01-26T09:10:28.291Z,14.80
2024-01-26T09:11:31.108Z,14.90
2024-01-26T09:12:34.444Z,14.90
2024-01-26T09:13:36.812Z,15.00
2024-01-26T09:14:39.116Z,15.00
2024-01-26T09:15:41.542Z,15.00
2024-01-26T09:16:43.934Z,15.00
2024-01-26T09:17:46.395Z,15.00
2024-01-26T09:18:48.930Z,15.10
2024-01-26T09:19:51.669Z,15.10
2024-01-26T09:20:54.127Z,15.00
2024-01-26T09:21:56.453Z,15.00
2024-01-26T09:22:58.976Z,15.00
2024-01-26T09:24:01.340Z,15.10
2024-01-26T09:25:03.826Z,15.10
2024-01-26T09:26:06.546Z,15.20
2024-01-26T09:27:08.828Z,15.20
2024-01-26T09:28:11.179Z,15.20
2024-01-26T09:29:13.669Z,15.30
2024-01-26T09:30:16.202Z,15.30
2024-01-26T09:31:20.106Z,15.20
2024-01-26T09:32:22.464Z,15.20
2024-01-26T09:33:25.054Z,15.20
2024-01-26T09:34:29.131Z,15.30
2024-01-26T09:35:31.691Z,15.40
2024-01-26T09:36:34.359Z,15.50
2024-01-26T09:37:36.932Z,15.70
2024-01-26T09:38:39.487Z,15.90
2024-01-26T09:39:42.553Z,16.10
2024-01-26T09:40:45.178Z,16.30
2024-01-26T09:41:47.567Z,16.50
2024-01-26T09:42:50.017Z,16.70
2024-01-26T09:43:52.329Z,16.80
2024-01-26T09:44:57.456Z,16.90
2024-01-26T09:45:59.978Z,17.10
2024-01-26T09:47:07.520Z,17.20
2024-01-26T09:48:11.292Z,17.20
2024-01-26T09:49:13.930Z,17.30
2024-01-26T09:50:17.320Z,17.20
2024-01-26T09:51:19.723Z,17.30
2024-01-26T09:52:22.945Z,17.30
2024-01-26T09:53:25.807Z,17.40
2024-01-26T09:54:30.309Z,17.40
2024-01-26T09:55:35.665Z,17.50
2024-01-26T09:56:41.524Z,17.40
2024-01-26T09:57:48.636Z,17.50
2024-01-26T09:58:50.979Z,17.60
2024-01-26T09:59:55.259Z,17.60
2024-01-26T10:00:57.815Z,17.70
2024-01-26T10:02:02.119Z,17.80
2024-01-26T10:03:04.914Z,17.90
2024-01-26T10:04:09.456Z,17.90
2024-01-26T10:05:13.939Z,17.80
2024-01-26T10:06:16.342Z,17.80
2024-01-26T10:07:19.013Z,17.90
2024-01-26T10:08:22.345Z,17.90
2024-01-26T10:09:25.920Z,18.00
2024-01-26T10:10:28.326Z,18.00
2024-01-26T10:11:32.672Z,18.10
2024-01-26T10:12:37.230Z,18.10
2024-01-26T10:13:39.523Z,18.00
2024-01-26T10:14:41.865Z,18.10
2024-01-26T10:15:44.349Z,18.20
2024-01-26T10:17:01.914Z,18.20
2024-01-26T10:18:04.771Z,18.30
2024-01-26T10:19:07.294Z,18.50
2024-01-26T10:20:15.966Z,18.60
2024-01-26T10:21:18.785Z,18.60
2024-01-26T10:22:21.301Z,18.70
2024-01-26T10:23:24.690Z,18.70
2024-01-26T10:24:28.296Z,18.80
2024-01-26T10:25:31.169Z,18.80
2024-01-26T10:26:33.704Z,18.80
2024-01-26T10:27:38.212Z,18.80
2024-01-26T10:28:41.333Z,18.80
2024-01-26T10:29:44.869Z,18.90
2024-01-26T10:30:47.929Z,19.00
2024-01-26T10:31:51.700Z,19.10
2024-01-26T10:32:54.620Z,19.10
2024-01-26T10:33:58.272Z,19.40
2024-01-26T10:35:06.318Z,19.60
2024-01-26T10:36:12.961Z,19.70
2024-01-26T10:37:18.037Z,19.70
2024-01-26T10:38:21.318Z,19.50
2024-01-26T10:39:31.148Z,19.50
2024-01-26T10:40:34.707Z,19.50
2024-01-26T10:41:43.129Z,19.50
2024-01-26T10:42:48.531Z,19.40
2024-01-26T10:43:55.114Z,19.40
2024-01-26T10:44:59.384Z,19.50
2024-01-26T10:46:03.701Z,19.40
2024-01-26T10:47:06.331Z,19.20
2024-01-26T10:48:11.315Z,19.10
2024-01-26T10:49:14.576Z,19.20
2024-01-26T10:50:17.766Z,19.20
2024-01-26T10:51:21.261Z,19.20
2024-01-26T10:52:27.130Z,19.10
2024-01-26T10:53:33.041Z,19.10
2024-01-26T10:54:36.258Z,19.10
2024-01-26T10:55:39.808Z,19.20
2024-01-26T10:56:42.230Z,19.20
2024-01-26T10:57:44.557Z,19.40
2024-01-26T10:58:46.883Z,19.50
2024-01-26T10:59:50.293Z,19.50
2024-01-26T11:00:53.006Z,19.70
2024-01-26T11:01:56.590Z,19.80
2024-01-26T11:03:00.108Z,19.80
2024-01-26T11:04:02.930Z,19.80
2024-01-26T11:05:11.464Z,19.70
2024-01-26T11:06:15.221Z,19.60
2024-01-26T11:07:21.606Z,19.50
2024-01-26T11:08:28.095Z,19.60
2024-01-26T11:09:36.323Z,19.70
2024-01-26T11:10:39.108Z,19.70
2024-01-26T11:11:41.702Z,19.70
2024-01-26T11:12:44.099Z,19.80
2024-01-26T11:13:54.097Z,19.90
2024-01-26T11:15:10.963Z,19.90
2024-01-26T11:16:17.859Z,20.00
2024-01-26T11:17:21.093Z,20.10
2024-01-26T11:18:28.084Z,20.20
2024-01-26T11:19:32.697Z,20.10
2024-01-26T11:20:37.577Z,20.20
2024-01-26T11:21:46.151Z,20.10
2024-01-26T11:23:02.388Z,20.10
2024-01-26T11:24:17.950Z,20.10
2024-01-26T11:25:23.845Z,20.00
2024-01-26T11:26:27.059Z,20.00
2024-01-26T11:27:29.313Z,20.10
2024-01-26T11:28:31.673Z,20.20
2024-01-26T11:29:38.850Z,20.30
2024-01-26T11:30:41.454Z,20.30
2024-01-26T11:31:44.059Z,20.30
2024-01-26T11:32:47.019Z,20.50
2024-01-26T11:33:51.152Z,20.50
2024-01-26T11:35:01.581Z,20.40
2024-01-26T11:36:10.591Z,20.50
2024-01-26T11:37:15.081Z,20.60
2024-01-26T11:38:20.391Z,20.70
2024-01-26T11:39:23.802Z,20.80
2024-01-26T11:40:26.403Z,21.00
2024-01-26T11:41:29.331Z,21.10
2024-01-26T11:42:33.212Z,21.30
2024-01-26T11:43:44.422Z,21.40
2024-01-26T11:45:22.492Z,21.30
2024-01-26T11:46:25.633Z,21.20
2024-01-26T11:47:29.115Z,21.30
2024-01-26T11:48:32.480Z,21.20
2024-01-26T11:49:35.317Z,20.80
2024-01-26T11:50:39.095Z,20.70
2024-01-26T11:51:42.575Z,20.50
2024-01-26T11:52:47.159Z,20.60
2024-01-26T11:53:50.063Z,20.60
2024-01-26T11:54:53.056Z,20.40
2024-01-26T11:55:58.804Z,20.40
2024-01-26T11:57:03.419Z,20.40
2024-01-26T11:58:09.708Z,20.30
2024-01-26T11:59:12.723Z,20.10
2024-01-26T12:00:15.473Z,20.10
2024-01-26T12:01:17.954Z,20.00
2024-01-26T12:02:20.935Z,20.20
2024-01-26T12:03:25.201Z,20.30
2024-01-26T12:04:28.615Z,20.30
2024-01-26T12:05:31.665Z,20.40
2024-01-26T12:06:34.315Z,20.50
2024-01-26T12:07:37.066Z,20.60
2024-01-26T12:08:40.602Z,20.70
2024-01-26T12:09:43.728Z,20.80
2024-01-26T12:10:46.157Z,21.00
2024-01-26T12:11:49.494Z,21.10
2024-01-26T12:12:52.207Z,21.30
2024-01-26T12:13:54.621Z,21.30
2024-01-26T12:14:57.493Z,21.40
2024-01-26T12:16:00.156Z,21.30
2024-01-26T12:17:03.305Z,21.30
2024-01-26T12:18:11.080Z,21.30
2024-01-26T12:19:13.766Z,21.30
2024-01-26T12:20:16.426Z,21.30
2024-01-26T12:21:18.861Z,21.30
2024-01-26T12:22:21.380Z,21.40
2024-01-26T12:23:23.812Z,21.40
2024-01-26T12:24:26.398Z,21.20
2024-01-26T12:25:29.355Z,21.10
2024-01-26T12:26:31.914Z,21.00
2024-01-26T12:27:35.351Z,21.00
2024-01-26T12:28:37.688Z,21.00
2024-01-26T12:29:40.266Z,21.00
2024-01-26T12:30:47.222Z,20.90
2024-01-26T12:31:50.478Z,20.90
2024-01-26T12:32:52.819Z,21.00
2024-01-26T12:33:56.742Z,20.90
2024-01-26T12:35:03.677Z,20.90
2024-01-26T12:36:11.012Z,20.90
2024-01-26T12:37:13.660Z,20.90
2024-01-26T12:38:16.041Z,20.80
2024-01-26T12:39:18.328Z,20.80
2024-01-26T12:40:20.681Z,20.80
2024-01-26T12:41:24.487Z,20.90
2024-01-26T12:42:26.842Z,21.00
2024-01-26T12:43:29.244Z,21.10
2024-01-26T12:44:32.542Z,21.10
2024-01-26T12:45:34.959Z,21.00
2024-01-26T12:46:37.290Z,20.80
2024-01-26T12:47:39.719Z,20.80
2024-01-26T12:48:42.262Z,20.80
2024-01-26T12:49:44.762Z,20.80
2024-01-26T12:50:48.205Z,20.70
2024-01-26T12:51:51.904Z,20.70
2024-01-26T12:52:54.294Z,20.60
2024-01-26T12:53:56.955Z,20.50
2024-01-26T12:54:59.264Z,20.50
2024-01-26T12:56:01.533Z,20.60
2024-01-26T12:57:04.004Z,20.50
2024-01-26T12:58:06.438Z,20.30
2024-01-26T12:59:09.843Z,20.20
2024-01-26T13:00:12.735Z,20.20
2024-01-26T13:01:23.715Z,20.20
2024-01-26T13:02:26.241Z,20.00
2024-01-26T13:03:28.639Z,20.00
2024-01-26T13:04:31.309Z,20.10
2024-01-26T13:05:33.894Z,20.10
2024-01-26T13:06:36.829Z,20.20
2024-01-26T13:07:39.212Z,20.30
2024-01-26T13:08:41.480Z,20.30
2024-01-26T13:09:43.859Z,20.30
2024-01-26T13:10:47.249Z,20.30
2024-01-26T13:11:50.616Z,20.20
2024-01-26T13:12:52.882Z,20.20
2024-01-26T13:13:55.627Z,20.10
2024-01-26T13:14:57.908Z,20.10
2024-01-26T13:16:00.689Z,20.10
2024-01-26T13:17:02.956Z,20.00
2024-01-26T13:18:14.406Z,20.10
2024-01-26T13:19:23.726Z,20.00
2024-01-26T13:20:26.291Z,19.90
2024-01-26T13:21:28.924Z,19.90
2024-01-26T13:22:31.345Z,19.90
2024-01-26T13:23:33.745Z,19.90
2024-01-26T13:24:36.643Z,19.90
2024-01-26T13:25:38.962Z,19.90
2024-01-26T13:26:42.004Z,20.00
2024-01-26T13:27:44.572Z,19.90
2024-01-26T13:28:47.175Z,19.90
2024-01-26T13:29:49.482Z,19.80
2024-01-26T13:30:56.027Z,19.90
2024-01-26T13:31:58.355Z,19.90
2024-01-26T13:33:00.959Z,19.80
2024-01-26T13:34:03.507Z,19.70
2024-01-26T13:35:07.591Z,19.60
2024-01-26T13:36:09.948Z,19.50
2024-01-26T13:37:13.267Z,19.50
2024-01-26T13:38:15.702Z,19.40
2024-01-26T13:39:18.054Z,19.40
2024-01-26T13:40:20.524Z,19.20
2024-01-26T13:41:22.885Z,19.20
2024-01-26T13:42:26.663Z,19.10
2024-01-26T13:43:31.863Z,19.00
2024-01-26T13:44:34.299Z,19.10
2024-01-26T13:45:38.138Z,19.10
2024-01-26T13:46:40.431Z,19.10
2024-01-26T13:47:48.654Z,19.20
2024-01-26T13:48:54.112Z,19.20
2024-01-26T13:49:58.003Z,19.20
2024-01-26T13:51:01.580Z,19.10
2024-01-26T13:52:04.161Z,19.20